sensor_id;sensor_type;location;lat;lon;timestamp;temperature;humidity
28530;DHT22;15737;49.760;6.632;2023-04-03T00:00:46;4.90;99.90
28530;DHT22;15737;49.760;6.632;2023-04-03T00:03:15;4.90;99.90
28530;DHT22;15737;49.760;6.632;2023-04-03T00:06:00;4.90;99.90
28530;DHT22;15737;49.760;6.632;2023-04-03T00:08:26;4.90;99.90
28530;DHT22;15737;49.760;6.632;2023-04-03T00:10:52;4.80;99.90
28530;DHT22;15737;49.760;6.632;2023-04-03T00:13:18;4.80;99.90
28530;DHT22;15737;49.760;6.632;2023-04-03T00:15:43;4.80;99.90
28530;DHT22;15737;49.760;6.632;2023-04-03T00:18:09;4.70;99.90
28530;DHT22;15737;49.760;6.632;2023-04-03T00:20:38;4.70;99.90
28530;DHT22;15737;49.760;6.632;2023-04-03T00:23:04;4.60;99.90
28530;DHT22;15737;49.760;6.632;2023-04-03T00:25:30;4.60;99.90
28530;DHT22;15737;49.760;6.632;2023-04-03T00:27:56;4.50;99.90
28530;DHT22;15737;49.760;6.632;2023-04-03T00:30:23;4.50;99.90
28530;DHT22;15737;49.760;6.632;2023-04-03T00:32:49;4.50;99.90
28530;DHT22;15737;49.760;6.632;2023-04-03T00:35:15;4.50;99.90
28530;DHT22;15737;49.760;6.632;2023-04-03T00:37:42;4.50;99.90
28530;DHT22;15737;49.760;6.632;2023-04-03T00:40:09;4.60;99.90
28530;DHT22;15737;49.760;6.632;2023-04-03T00:42:36;4.50;99.90
28530;DHT22;15737;49.760;6.632;2023-04-03T00:47:29;4.40;99.90
28530;DHT22;15737;49.760;6.632;2023-04-03T00:49:56;4.40;99.90
28530;DHT22;15737;49.760;6.632;2023-04-03T00:52:25;4.30;99.90
28530;DHT22;15737;49.760;6.632;2023-04-03T00:54:54;4.20;99.90
28530;DHT22;15737;49.760;6.632;2023-04-03T00:57:21;4.20;99.90
28530;DHT22;15737;49.760;6.632;2023-04-03T00:59:52;4.10;99.90
28530;DHT22;15737;49.760;6.632;2023-04-03T01:02:21;4.00;99.90
28530;DHT22;15737;49.760;6.632;2023-04-03T01:04:47;3.90;99.90
28530;DHT22;15737;49.760;6.632;2023-04-03T01:07:16;3.80;99.90
28530;DHT22;15737;49.760;6.632;2023-04-03T01:09:43;3.80;99.90
28530;DHT22;15737;49.760;6.632;2023-04-03T01:12:20;3.70;99.90
28530;DHT22;15737;49.760;6.632;2023-04-03T01:14:50;3.50;99.90
28530;DHT22;15737;49.760;6.632;2023-04-03T01:17:47;3.40;99.90
28530;DHT22;15737;49.760;6.632;2023-04-03T01:23:11;3.40;99.90
28530;DHT22;15737;49.760;6.632;2023-04-03T01:25:47;3.30;99.90
28530;DHT22;15737;49.760;6.632;2023-04-03T01:28:24;3.20;99.90
28530;DHT22;15737;49.760;6.632;2023-04-03T01:31:15;3.10;99.90
28530;DHT22;15737;49.760;6.632;2023-04-03T01:33:44;3.00;99.90
28530;DHT22;15737;49.760;6.632;2023-04-03T01:36:15;2.90;99.90
28530;DHT22;15737;49.760;6.632;2023-04-03T01:38:41;2.90;99.90
28530;DHT22;15737;49.760;6.632;2023-04-03T01:41:06;2.80;99.90
28530;DHT22;15737;49.760;6.632;2023-04-03T01:43:32;2.70;99.90
28530;DHT22;15737;49.760;6.632;2023-04-03T01:45:58;2.70;99.90
28530;DHT22;15737;49.760;6.632;2023-04-03T01:48:24;2.70;99.90
28530;DHT22;15737;49.760;6.632;2023-04-03T01:50:50;2.70;99.90
28530;DHT22;15737;49.760;6.632;2023-04-03T01:53:15;2.70;99.90
28530;DHT22;15737;49.760;6.632;2023-04-03T01:55:41;2.60;99.90
28530;DHT22;15737;49.760;6.632;2023-04-03T01:58:07;2.60;99.90
28530;DHT22;15737;49.760;6.632;2023-04-03T02:00:32;2.60;99.90
28530;DHT22;15737;49.760;6.632;2023-04-03T02:03:04;2.50;99.90
28530;DHT22;15737;49.760;6.632;2023-04-03T02:05:30;2.40;99.90
28530;DHT22;15737;49.760;6.632;2023-04-03T02:07:56;2.40;99.90
28530;DHT22;15737;49.760;6.632;2023-04-03T02:10:22;2.40;99.90
28530;DHT22;15737;49.760;6.632;2023-04-03T02:12:48;2.40;99.90
28530;DHT22;15737;49.760;6.632;2023-04-03T02:15:14;2.30;99.90
28530;DHT22;15737;49.760;6.632;2023-04-03T02:17:42;2.30;99.90
28530;DHT22;15737;49.760;6.632;2023-04-03T02:20:08;2.30;99.90
28530;DHT22;15737;49.760;6.632;2023-04-03T02:22:36;2.30;99.90
28530;DHT22;15737;49.760;6.632;2023-04-03T02:25:02;2.20;99.90
28530;DHT22;15737;49.760;6.632;2023-04-03T02:27:30;2.10;99.90
28530;DHT22;15737;49.760;6.632;2023-04-03T02:29:59;2.10;99.90
28530;DHT22;15737;49.760;6.632;2023-04-03T02:32:25;2.00;99.90
28530;DHT22;15737;49.760;6.632;2023-04-03T02:34:51;2.10;99.90
28530;DHT22;15737;49.760;6.632;2023-04-03T02:37:16;2.10;99.90
28530;DHT22;15737;49.760;6.632;2023-04-03T02:39:42;2.10;99.90
28530;DHT22;15737;49.760;6.632;2023-04-03T02:42:08;2.10;99.90
28530;DHT22;15737;49.760;6.632;2023-04-03T02:44:34;2.20;99.90
28530;DHT22;15737;49.760;6.632;2023-04-03T02:47:01;2.20;99.90
28530;DHT22;15737;49.760;6.632;2023-04-03T02:49:26;2.20;99.90
28530;DHT22;15737;49.760;6.632;2023-04-03T02:51:52;2.10;99.90
28530;DHT22;15737;49.760;6.632;2023-04-03T02:54:18;2.10;99.90
28530;DHT22;15737;49.760;6.632;2023-04-03T02:56:47;2.20;99.90
28530;DHT22;15737;49.760;6.632;2023-04-03T02:59:22;2.00;99.90
28530;DHT22;15737;49.760;6.632;2023-04-03T03:01:48;1.90;99.90
28530;DHT22;15737;49.760;6.632;2023-04-03T03:04:14;1.90;99.90
28530;DHT22;15737;49.760;6.632;2023-04-03T03:06:39;1.80;99.90
28530;DHT22;15737;49.760;6.632;2023-04-03T03:09:05;1.70;99.90
28530;DHT22;15737;49.760;6.632;2023-04-03T03:11:31;1.70;99.90
28530;DHT22;15737;49.760;6.632;2023-04-03T03:13:57;1.70;99.90
28530;DHT22;15737;49.760;6.632;2023-04-03T03:16:25;1.70;99.90
28530;DHT22;15737;49.760;6.632;2023-04-03T03:18:51;1.80;99.90
28530;DHT22;15737;49.760;6.632;2023-04-03T03:21:19;1.80;99.90
28530;DHT22;15737;49.760;6.632;2023-04-03T03:23:45;1.70;99.90
28530;DHT22;15737;49.760;6.632;2023-04-03T03:26:13;1.50;99.90
28530;DHT22;15737;49.760;6.632;2023-04-03T03:28:39;1.50;99.90
28530;DHT22;15737;49.760;6.632;2023-04-03T03:31:06;1.50;99.90
28530;DHT22;15737;49.760;6.632;2023-04-03T03:33:35;1.60;99.90
28530;DHT22;15737;49.760;6.632;2023-04-03T03:36:01;1.70;99.90
28530;DHT22;15737;49.760;6.632;2023-04-03T03:38:27;1.70;99.90
28530;DHT22;15737;49.760;6.632;2023-04-03T03:40:53;1.70;99.90
28530;DHT22;15737;49.760;6.632;2023-04-03T03:43:19;1.60;99.90
28530;DHT22;15737;49.760;6.632;2023-04-03T03:45:50;1.50;99.90
28530;DHT22;15737;49.760;6.632;2023-04-03T03:48:20;1.40;99.90
28530;DHT22;15737;49.760;6.632;2023-04-03T03:50:46;1.50;99.90
28530;DHT22;15737;49.760;6.632;2023-04-03T03:53:12;1.50;99.90
28530;DHT22;15737;49.760;6.632;2023-04-03T03:55:38;1.60;99.90
28530;DHT22;15737;49.760;6.632;2023-04-03T03:58:04;1.60;99.90
28530;DHT22;15737;49.760;6.632;2023-04-03T04:00:29;1.70;99.90
28530;DHT22;15737;49.760;6.632;2023-04-03T04:02:55;1.80;99.90
28530;DHT22;15737;49.760;6.632;2023-04-03T04:05:21;1.90;99.90
28530;DHT22;15737;49.760;6.632;2023-04-03T04:07:47;1.90;99.90
28530;DHT22;15737;49.760;6.632;2023-04-03T04:10:12;1.90;99.90
28530;DHT22;15737;49.760;6.632;2023-04-03T04:12:39;1.90;99.90
28530;DHT22;15737;49.760;6.632;2023-04-03T04:15:05;1.90;99.90
28530;DHT22;15737;49.760;6.632;2023-04-03T04:17:34;1.90;99.90
28530;DHT22;15737;49.760;6.632;2023-04-03T04:20:01;1.80;99.90
28530;DHT22;15737;49.760;6.632;2023-04-03T04:22:27;1.60;99.90
28530;DHT22;15737;49.760;6.632;2023-04-03T04:24:53;1.40;99.90
28530;DHT22;15737;49.760;6.632;2023-04-03T04:27:18;1.40;99.90
28530;DHT22;15737;49.760;6.632;2023-04-03T04:29:44;1.40;99.90
28530;DHT22;15737;49.760;6.632;2023-04-03T04:32:10;1.30;99.90
28530;DHT22;15737;49.760;6.632;2023-04-03T04:34:36;1.20;99.90
28530;DHT22;15737;49.760;6.632;2023-04-03T04:37:01;1.10;99.90
28530;DHT22;15737;49.760;6.632;2023-04-03T04:39:27;0.80;99.90
28530;DHT22;15737;49.760;6.632;2023-04-03T04:41:53;0.60;99.90
28530;DHT22;15737;49.760;6.632;2023-04-03T04:44:30;0.60;99.90
28530;DHT22;15737;49.760;6.632;2023-04-03T04:46:55;0.50;99.90
28530;DHT22;15737;49.760;6.632;2023-04-03T04:49:21;0.60;99.90
28530;DHT22;15737;49.760;6.632;2023-04-03T04:51:47;0.70;99.90
28530;DHT22;15737;49.760;6.632;2023-04-03T04:54:13;0.70;99.90
28530;DHT22;15737;49.760;6.632;2023-04-03T04:56:38;0.80;99.90
28530;DHT22;15737;49.760;6.632;2023-04-03T04:59:04;0.90;99.90
28530;DHT22;15737;49.760;6.632;2023-04-03T05:01:30;1.00;99.90
28530;DHT22;15737;49.760;6.632;2023-04-03T05:03:56;1.10;99.90
28530;DHT22;15737;49.760;6.632;2023-04-03T05:06:22;1.10;99.90
28530;DHT22;15737;49.760;6.632;2023-04-03T05:08:47;1.10;99.90
28530;DHT22;15737;49.760;6.632;2023-04-03T05:11:13;1.10;99.90
28530;DHT22;15737;49.760;6.632;2023-04-03T05:13:54;1.00;99.90
28530;DHT22;15737;49.760;6.632;2023-04-03T05:16:22;0.90;99.90
28530;DHT22;15737;49.760;6.632;2023-04-03T05:18:51;0.90;99.90
28530;DHT22;15737;49.760;6.632;2023-04-03T05:21:17;0.90;99.90
28530;DHT22;15737;49.760;6.632;2023-04-03T05:23:48;1.00;99.90
28530;DHT22;15737;49.760;6.632;2023-04-03T05:26:25;1.70;99.90
28530;DHT22;15737;49.760;6.632;2023-04-03T05:28:51;2.70;99.90
28530;DHT22;15737;49.760;6.632;2023-04-03T05:31:17;3.50;99.90
28530;DHT22;15737;49.760;6.632;2023-04-03T05:33:43;4.30;99.90
28530;DHT22;15737;49.760;6.632;2023-04-03T05:36:09;5.20;99.90
28530;DHT22;15737;49.760;6.632;2023-04-03T05:38:34;6.20;99.90
28530;DHT22;15737;49.760;6.632;2023-04-03T05:41:00;7.20;99.90
28530;DHT22;15737;49.760;6.632;2023-04-03T05:43:26;8.60;99.90
28530;DHT22;15737;49.760;6.632;2023-04-03T05:45:51;9.60;99.90
28530;DHT22;15737;49.760;6.632;2023-04-03T05:48:17;10.50;99.90
28530;DHT22;15737;49.760;6.632;2023-04-03T05:50:43;11.40;99.90
28530;DHT22;15737;49.760;6.632;2023-04-03T05:53:21;12.60;99.90
28530;DHT22;15737;49.760;6.632;2023-04-03T05:55:48;14.20;99.20
28530;DHT22;15737;49.760;6.632;2023-04-03T05:58:13;15.20;95.90
28530;DHT22;15737;49.760;6.632;2023-04-03T06:00:39;16.10;93.20
28530;DHT22;15737;49.760;6.632;2023-04-03T06:03:05;17.30;88.30
28530;DHT22;15737;49.760;6.632;2023-04-03T06:05:31;18.30;84.10
28530;DHT22;15737;49.760;6.632;2023-04-03T06:07:57;19.40;78.90
28530;DHT22;15737;49.760;6.632;2023-04-03T06:10:23;20.40;73.80
28530;DHT22;15737;49.760;6.632;2023-04-03T06:12:49;21.40;69.90
28530;DHT22;15737;49.760;6.632;2023-04-03T06:15:15;22.10;64.80
28530;DHT22;15737;49.760;6.632;2023-04-03T06:17:42;22.30;63.30
28530;DHT22;15737;49.760;6.632;2023-04-03T06:20:08;23.00;60.60
28530;DHT22;15737;49.760;6.632;2023-04-03T06:22:34;23.10;58.70
28530;DHT22;15737;49.760;6.632;2023-04-03T06:25:00;23.40;58.20
28530;DHT22;15737;49.760;6.632;2023-04-03T06:27:26;24.30;56.60
28530;DHT22;15737;49.760;6.632;2023-04-03T06:29:51;24.90;54.10
28530;DHT22;15737;49.760;6.632;2023-04-03T06:32:17;24.30;53.90
28530;DHT22;15737;49.760;6.632;2023-04-03T06:34:45;23.30;54.50
28530;DHT22;15737;49.760;6.632;2023-04-03T06:37:20;23.30;54.60
28530;DHT22;15737;49.760;6.632;2023-04-03T06:39:46;23.60;54.20
28530;DHT22;15737;49.760;6.632;2023-04-03T06:42:14;24.10;53.70
28530;DHT22;15737;49.760;6.632;2023-04-03T06:44:40;24.70;52.70
28530;DHT22;15737;49.760;6.632;2023-04-03T06:47:06;24.60;51.80
28530;DHT22;15737;49.760;6.632;2023-04-03T06:49:36;25.50;51.30
28530;DHT22;15737;49.760;6.632;2023-04-03T06:52:02;26.20;49.10
28530;DHT22;15737;49.760;6.632;2023-04-03T06:54:28;25.80;48.70
28530;DHT22;15737;49.760;6.632;2023-04-03T06:56:53;24.90;48.60
28530;DHT22;15737;49.760;6.632;2023-04-03T06:59:19;23.70;49.00
28530;DHT22;15737;49.760;6.632;2023-04-03T07:02:00;23.00;49.60
28530;DHT22;15737;49.760;6.632;2023-04-03T07:06:54;22.90;49.30
28530;DHT22;15737;49.760;6.632;2023-04-03T07:09:20;23.00;48.30
28530;DHT22;15737;49.760;6.632;2023-04-03T07:11:46;22.20;48.50
28530;DHT22;15737;49.760;6.632;2023-04-03T07:14:12;22.20;48.60
28530;DHT22;15737;49.760;6.632;2023-04-03T07:16:37;22.80;48.10
28530;DHT22;15737;49.760;6.632;2023-04-03T07:19:03;23.00;47.80
28530;DHT22;15737;49.760;6.632;2023-04-03T07:21:29;23.00;47.20
28530;DHT22;15737;49.760;6.632;2023-04-03T07:23:55;21.80;47.10
28530;DHT22;15737;49.760;6.632;2023-04-03T07:26:21;20.90;47.90
28530;DHT22;15737;49.760;6.632;2023-04-03T07:28:48;20.90;48.00
28530;DHT22;15737;49.760;6.632;2023-04-03T07:31:15;21.50;46.80
28530;DHT22;15737;49.760;6.632;2023-04-03T07:33:42;20.80;47.40
28530;DHT22;15737;49.760;6.632;2023-04-03T07:36:09;20.80;47.10
28530;DHT22;15737;49.760;6.632;2023-04-03T07:38:35;20.70;47.00
28530;DHT22;15737;49.760;6.632;2023-04-03T07:41:02;20.90;47.30
28530;DHT22;15737;49.760;6.632;2023-04-03T07:43:28;21.90;46.30
28530;DHT22;15737;49.760;6.632;2023-04-03T07:45:53;21.80;45.40
28530;DHT22;15737;49.760;6.632;2023-04-03T07:48:24;21.10;46.30
28530;DHT22;15737;49.760;6.632;2023-04-03T07:50:50;20.50;46.60
28530;DHT22;15737;49.760;6.632;2023-04-03T07:53:16;20.50;46.60
28530;DHT22;15737;49.760;6.632;2023-04-03T07:55:42;20.60;46.60
28530;DHT22;15737;49.760;6.632;2023-04-03T07:58:13;21.40;46.20
28530;DHT22;15737;49.760;6.632;2023-04-03T08:00:39;22.40;45.20
28530;DHT22;15737;49.760;6.632;2023-04-03T08:03:06;22.20;44.50
28530;DHT22;15737;49.760;6.632;2023-04-03T08:05:37;21.40;45.10
28530;DHT22;15737;49.760;6.632;2023-04-03T08:08:04;21.90;45.40
28530;DHT22;15737;49.760;6.632;2023-04-03T08:10:32;23.20;44.00
28530;DHT22;15737;49.760;6.632;2023-04-03T08:12:58;23.00;43.70
28530;DHT22;15737;49.760;6.632;2023-04-03T08:15:23;22.90;43.50
28530;DHT22;15737;49.760;6.632;2023-04-03T08:17:50;22.90;43.60
28530;DHT22;15737;49.760;6.632;2023-04-03T08:20:15;23.60;43.10
28530;DHT22;15737;49.760;6.632;2023-04-03T08:22:41;23.60;43.10
28530;DHT22;15737;49.760;6.632;2023-04-03T08:25:07;22.10;43.70
28530;DHT22;15737;49.760;6.632;2023-04-03T08:27:33;21.60;44.60
28530;DHT22;15737;49.760;6.632;2023-04-03T08:29:58;22.70;44.30
28530;DHT22;15737;49.760;6.632;2023-04-03T08:32:24;25.00;43.00
28530;DHT22;15737;49.760;6.632;2023-04-03T08:34:50;25.60;41.20
28530;DHT22;15737;49.760;6.632;2023-04-03T08:37:15;25.70;41.20
28530;DHT22;15737;49.760;6.632;2023-04-03T08:39:44;26.20;41.20
28530;DHT22;15737;49.760;6.632;2023-04-03T08:42:40;26.80;40.50
28530;DHT22;15737;49.760;6.632;2023-04-03T08:48:04;26.20;39.50
28530;DHT22;15737;49.760;6.632;2023-04-03T08:50:36;24.90;40.20
28530;DHT22;15737;49.760;6.632;2023-04-03T08:53:05;24.60;40.90
28530;DHT22;15737;49.760;6.632;2023-04-03T08:55:44;24.60;40.30
28530;DHT22;15737;49.760;6.632;2023-04-03T08:58:23;24.40;40.10
28530;DHT22;15737;49.760;6.632;2023-04-03T09:03:21;23.50;40.00
28530;DHT22;15737;49.760;6.632;2023-04-03T09:06:19;23.20;39.60
28530;DHT22;15737;49.760;6.632;2023-04-03T09:14:24;20.00;41.90
28530;DHT22;15737;49.760;6.632;2023-04-03T09:16:57;18.40;44.30
28530;DHT22;15737;49.760;6.632;2023-04-03T09:21:58;17.50;45.20
28530;DHT22;15737;49.760;6.632;2023-04-03T09:24:25;16.80;46.30
28530;DHT22;15737;49.760;6.632;2023-04-03T09:27:08;18.50;45.00
28530;DHT22;15737;49.760;6.632;2023-04-03T09:29:39;20.80;42.30
28530;DHT22;15737;49.760;6.632;2023-04-03T09:32:19;22.30;41.60
28530;DHT22;15737;49.760;6.632;2023-04-03T09:34:47;22.90;40.10
28530;DHT22;15737;49.760;6.632;2023-04-03T09:37:46;21.20;41.70
28530;DHT22;15737;49.760;6.632;2023-04-03T09:40:29;22.30;41.30
28530;DHT22;15737;49.760;6.632;2023-04-03T09:42:59;21.60;41.20
28530;DHT22;15737;49.760;6.632;2023-04-03T09:45:35;20.40;42.70
28530;DHT22;15737;49.760;6.632;2023-04-03T09:50:57;17.00;45.20
28530;DHT22;15737;49.760;6.632;2023-04-03T09:53:59;15.30;46.60
28530;DHT22;15737;49.760;6.632;2023-04-03T09:56:25;16.20;46.90
28530;DHT22;15737;49.760;6.632;2023-04-03T10:01:38;16.30;46.30
28530;DHT22;15737;49.760;6.632;2023-04-03T10:04:12;15.60;46.80
28530;DHT22;15737;49.760;6.632;2023-04-03T10:06:41;15.20;46.90
28530;DHT22;15737;49.760;6.632;2023-04-03T10:09:25;14.30;47.60
28530;DHT22;15737;49.760;6.632;2023-04-03T10:14:27;12.80;50.60
28530;DHT22;15737;49.760;6.632;2023-04-03T10:17:18;13.10;49.60
28530;DHT22;15737;49.760;6.632;2023-04-03T10:20:24;12.80;49.60
28530;DHT22;15737;49.760;6.632;2023-04-03T10:23:02;12.00;49.80
28530;DHT22;15737;49.760;6.632;2023-04-03T10:28:41;11.30;51.20
28530;DHT22;15737;49.760;6.632;2023-04-03T10:31:33;11.80;51.10
28530;DHT22;15737;49.760;6.632;2023-04-03T10:34:23;12.50;50.50
28530;DHT22;15737;49.760;6.632;2023-04-03T10:37:19;14.00;49.40
28530;DHT22;15737;49.760;6.632;2023-04-03T10:40:00;15.80;47.00
28530;DHT22;15737;49.760;6.632;2023-04-03T10:48:26;18.20;45.10
28530;DHT22;15737;49.760;6.632;2023-04-03T10:57:03;18.40;45.00
28530;DHT22;15737;49.760;6.632;2023-04-03T10:59:33;17.80;45.00
28530;DHT22;15737;49.760;6.632;2023-04-03T11:04:33;14.50;48.20
28530;DHT22;15737;49.760;6.632;2023-04-03T11:07:09;14.70;47.90
28530;DHT22;15737;49.760;6.632;2023-04-03T11:09:41;13.80;48.90
28530;DHT22;15737;49.760;6.632;2023-04-03T11:12:15;14.50;48.80
28530;DHT22;15737;49.760;6.632;2023-04-03T11:14:42;15.10;47.80
28530;DHT22;15737;49.760;6.632;2023-04-03T11:17:26;14.80;47.70
28530;DHT22;15737;49.760;6.632;2023-04-03T11:20:14;15.10;48.00
28530;DHT22;15737;49.760;6.632;2023-04-03T11:22:45;14.30;48.60
28530;DHT22;15737;49.760;6.632;2023-04-03T11:27:45;14.10;49.50
28530;DHT22;15737;49.760;6.632;2023-04-03T11:30:22;14.10;49.20
28530;DHT22;15737;49.760;6.632;2023-04-03T11:33:05;14.00;48.80
28530;DHT22;15737;49.760;6.632;2023-04-03T11:35:36;13.50;48.80
28530;DHT22;15737;49.760;6.632;2023-04-03T11:38:04;12.70;49.90
28530;DHT22;15737;49.760;6.632;2023-04-03T11:40:33;12.30;50.80
28530;DHT22;15737;49.760;6.632;2023-04-03T12:05:51;17.90;47.30
28530;DHT22;15737;49.760;6.632;2023-04-03T12:16:30;18.10;46.10
28530;DHT22;15737;49.760;6.632;2023-04-03T12:19:02;17.70;47.30
28530;DHT22;15737;49.760;6.632;2023-04-03T12:27:02;17.70;47.20
28530;DHT22;15737;49.760;6.632;2023-04-03T12:37:17;17.80;47.20
28530;DHT22;15737;49.760;6.632;2023-04-03T12:39:52;17.80;46.60
28530;DHT22;15737;49.760;6.632;2023-04-03T12:42:41;18.10;47.00
28530;DHT22;15737;49.760;6.632;2023-04-03T12:45:20;17.60;46.70
28530;DHT22;15737;49.760;6.632;2023-04-03T12:47:49;17.50;47.30
28530;DHT22;15737;49.760;6.632;2023-04-03T12:50:27;17.30;46.30
28530;DHT22;15737;49.760;6.632;2023-04-03T12:53:13;16.90;47.50
28530;DHT22;15737;49.760;6.632;2023-04-03T12:55:40;17.60;47.50
28530;DHT22;15737;49.760;6.632;2023-04-03T12:58:21;17.40;46.30
28530;DHT22;15737;49.760;6.632;2023-04-03T13:01:02;17.00;47.30
28530;DHT22;15737;49.760;6.632;2023-04-03T13:03:28;17.40;46.80
28530;DHT22;15737;49.760;6.632;2023-04-03T13:06:00;17.70;46.60
28530;DHT22;15737;49.760;6.632;2023-04-03T13:08:27;17.80;46.20
28530;DHT22;15737;49.760;6.632;2023-04-03T13:11:00;17.60;45.80
28530;DHT22;15737;49.760;6.632;2023-04-03T13:13:26;17.40;46.30
28530;DHT22;15737;49.760;6.632;2023-04-03T13:15:52;17.10;46.30
28530;DHT22;15737;49.760;6.632;2023-04-03T13:18:34;17.00;46.90
28530;DHT22;15737;49.760;6.632;2023-04-03T13:21:11;17.10;46.60
28530;DHT22;15737;49.760;6.632;2023-04-03T13:23:40;17.50;46.70
28530;DHT22;15737;49.760;6.632;2023-04-03T13:26:09;18.00;46.20
28530;DHT22;15737;49.760;6.632;2023-04-03T13:28:35;17.80;45.30
28530;DHT22;15737;49.760;6.632;2023-04-03T13:31:14;17.50;45.90
28530;DHT22;15737;49.760;6.632;2023-04-03T13:36:34;17.10;46.40
28530;DHT22;15737;49.760;6.632;2023-04-03T13:39:20;17.20;46.10
28530;DHT22;15737;49.760;6.632;2023-04-03T13:41:52;16.70;46.00
28530;DHT22;15737;49.760;6.632;2023-04-03T13:46:59;17.00;46.50
28530;DHT22;15737;49.760;6.632;2023-04-03T13:49:37;17.10;46.90
28530;DHT22;15737;49.760;6.632;2023-04-03T13:54:49;16.60;46.50
28530;DHT22;15737;49.760;6.632;2023-04-03T13:57:17;16.40;46.70
28530;DHT22;15737;49.760;6.632;2023-04-03T13:59:43;16.00;46.50
28530;DHT22;15737;49.760;6.632;2023-04-03T14:02:17;15.70;46.70
28530;DHT22;15737;49.760;6.632;2023-04-03T14:07:08;15.70;47.00
28530;DHT22;15737;49.760;6.632;2023-04-03T14:09:34;15.70;47.40
28530;DHT22;15737;49.760;6.632;2023-04-03T14:12:11;16.00;47.90
28530;DHT22;15737;49.760;6.632;2023-04-03T14:14:37;16.30;47.20
28530;DHT22;15737;49.760;6.632;2023-04-03T14:17:17;16.00;46.90
28530;DHT22;15737;49.760;6.632;2023-04-03T14:19:44;15.60;47.40
28530;DHT22;15737;49.760;6.632;2023-04-03T14:22:22;15.30;47.80
28530;DHT22;15737;49.760;6.632;2023-04-03T14:24:49;15.60;48.10
28530;DHT22;15737;49.760;6.632;2023-04-03T14:27:21;15.70;48.30
28530;DHT22;15737;49.760;6.632;2023-04-03T14:29:49;16.00;47.70
28530;DHT22;15737;49.760;6.632;2023-04-03T14:32:17;15.50;47.60
28530;DHT22;15737;49.760;6.632;2023-04-03T14:34:43;15.40;47.60
28530;DHT22;15737;49.760;6.632;2023-04-03T14:37:13;14.90;47.40
28530;DHT22;15737;49.760;6.632;2023-04-03T14:39:40;14.70;47.80
28530;DHT22;15737;49.760;6.632;2023-04-03T14:42:09;14.50;48.20
28530;DHT22;15737;49.760;6.632;2023-04-03T14:44:36;14.70;48.60
28530;DHT22;15737;49.760;6.632;2023-04-03T14:47:03;14.60;48.30
28530;DHT22;15737;49.760;6.632;2023-04-03T14:49:29;14.30;48.20
28530;DHT22;15737;49.760;6.632;2023-04-03T14:51:56;13.40;49.00
28530;DHT22;15737;49.760;6.632;2023-04-03T14:54:22;13.50;49.70
28530;DHT22;15737;49.760;6.632;2023-04-03T14:56:56;13.70;50.10
28530;DHT22;15737;49.760;6.632;2023-04-03T14:59:30;13.90;49.90
28530;DHT22;15737;49.760;6.632;2023-04-03T15:01:57;14.00;49.40
28530;DHT22;15737;49.760;6.632;2023-04-03T15:04:22;14.30;49.30
28530;DHT22;15737;49.760;6.632;2023-04-03T15:06:49;14.50;49.20
28530;DHT22;15737;49.760;6.632;2023-04-03T15:09:23;14.40;49.00
28530;DHT22;15737;49.760;6.632;2023-04-03T15:11:50;14.30;49.90
28530;DHT22;15737;49.760;6.632;2023-04-03T15:14:16;14.10;49.50
28530;DHT22;15737;49.760;6.632;2023-04-03T15:16:42;13.90;50.10
28530;DHT22;15737;49.760;6.632;2023-04-03T15:19:08;13.60;49.90
28530;DHT22;15737;49.760;6.632;2023-04-03T15:21:34;13.30;50.20
28530;DHT22;15737;49.760;6.632;2023-04-03T15:23:59;13.10;50.60
28530;DHT22;15737;49.760;6.632;2023-04-03T15:26:25;12.90;50.60
28530;DHT22;15737;49.760;6.632;2023-04-03T15:28:51;12.80;50.50
28530;DHT22;15737;49.760;6.632;2023-04-03T15:31:16;12.70;50.10
28530;DHT22;15737;49.760;6.632;2023-04-03T15:33:42;12.70;50.50
28530;DHT22;15737;49.760;6.632;2023-04-03T15:36:07;12.80;50.60
28530;DHT22;15737;49.760;6.632;2023-04-03T15:38:33;12.90;50.60
28530;DHT22;15737;49.760;6.632;2023-04-03T15:40:59;12.80;50.40
28530;DHT22;15737;49.760;6.632;2023-04-03T15:43:25;12.90;50.90
28530;DHT22;15737;49.760;6.632;2023-04-03T15:45:51;13.00;50.40
28530;DHT22;15737;49.760;6.632;2023-04-03T15:48:17;12.90;50.30
28530;DHT22;15737;49.760;6.632;2023-04-03T15:50:43;12.80;50.30
28530;DHT22;15737;49.760;6.632;2023-04-03T15:53:09;12.60;50.60
28530;DHT22;15737;49.760;6.632;2023-04-03T15:55:37;12.70;50.70
28530;DHT22;15737;49.760;6.632;2023-04-03T15:58:03;12.90;50.70
28530;DHT22;15737;49.760;6.632;2023-04-03T16:00:32;12.60;50.80
28530;DHT22;15737;49.760;6.632;2023-04-03T16:03:02;12.60;51.50
28530;DHT22;15737;49.760;6.632;2023-04-03T16:05:29;12.80;50.90
28530;DHT22;15737;49.760;6.632;2023-04-03T16:07:57;12.90;50.80
28530;DHT22;15737;49.760;6.632;2023-04-03T16:10:23;13.00;50.50
28530;DHT22;15737;49.760;6.632;2023-04-03T16:12:48;12.80;49.90
28530;DHT22;15737;49.760;6.632;2023-04-03T16:15:14;12.40;49.90
28530;DHT22;15737;49.760;6.632;2023-04-03T16:17:40;12.00;50.30
28530;DHT22;15737;49.760;6.632;2023-04-03T16:20:09;11.60;50.50
28530;DHT22;15737;49.760;6.632;2023-04-03T16:22:35;11.60;51.00
28530;DHT22;15737;49.760;6.632;2023-04-03T16:25:02;11.70;50.70
28530;DHT22;15737;49.760;6.632;2023-04-03T16:27:28;11.70;50.80
28530;DHT22;15737;49.760;6.632;2023-04-03T16:29:58;12.00;50.70
28530;DHT22;15737;49.760;6.632;2023-04-03T16:32:27;12.20;50.50
28530;DHT22;15737;49.760;6.632;2023-04-03T16:34:54;12.10;49.90
28530;DHT22;15737;49.760;6.632;2023-04-03T16:37:20;12.00;50.60
28530;DHT22;15737;49.760;6.632;2023-04-03T16:39:46;12.00;50.70
28530;DHT22;15737;49.760;6.632;2023-04-03T16:42:11;12.00;51.20
28530;DHT22;15737;49.760;6.632;2023-04-03T16:44:37;11.90;50.90
28530;DHT22;15737;49.760;6.632;2023-04-03T16:47:03;11.70;50.60
28530;DHT22;15737;49.760;6.632;2023-04-03T16:49:30;11.40;51.10
28530;DHT22;15737;49.760;6.632;2023-04-03T16:51:58;11.40;51.20
28530;DHT22;15737;49.760;6.632;2023-04-03T16:54:24;11.60;51.50
28530;DHT22;15737;49.760;6.632;2023-04-03T16:56:49;11.80;51.30
28530;DHT22;15737;49.760;6.632;2023-04-03T16:59:15;11.90;50.90
28530;DHT22;15737;49.760;6.632;2023-04-03T17:01:41;11.80;50.70
28530;DHT22;15737;49.760;6.632;2023-04-03T17:04:06;11.70;50.90
28530;DHT22;15737;49.760;6.632;2023-04-03T17:06:32;11.50;50.90
28530;DHT22;15737;49.760;6.632;2023-04-03T17:08:57;11.20;50.90
28530;DHT22;15737;49.760;6.632;2023-04-03T17:11:23;10.60;51.30
28530;DHT22;15737;49.760;6.632;2023-04-03T17:13:49;10.20;51.60
28530;DHT22;15737;49.760;6.632;2023-04-03T17:16:15;9.80;52.80
28530;DHT22;15737;49.760;6.632;2023-04-03T17:18:41;9.60;53.10
28530;DHT22;15737;49.760;6.632;2023-04-03T17:21:07;9.60;53.50
28530;DHT22;15737;49.760;6.632;2023-04-03T17:23:35;9.40;53.40
28530;DHT22;15737;49.760;6.632;2023-04-03T17:26:02;9.30;53.30
28530;DHT22;15737;49.760;6.632;2023-04-03T17:28:28;9.10;53.70
28530;DHT22;15737;49.760;6.632;2023-04-03T17:31:00;9.00;53.50
28530;DHT22;15737;49.760;6.632;2023-04-03T17:33:26;8.90;53.90